Time;durP1;ratioP1;P1;durP2;ratioP2;P2;SDS_P1;SDS_P2;PMS_P1;PMS_P2;Temp;Humidity;BMP_temperature;BMP_pressure;BME280_temperature;BME280_humidity;BME280_pressure;Samples;Min_cycle;Max_cycle;Signal;HPM_P1;HPM_P2
2023/02/04 00:02:28;;;;;;;0.40;0.40;;;5.10;99.90;6.40;96777.00;;;;5053798;28;20189;-84
2023/02/04 00:05:18;;;;;;;0.30;0.30;;;5.10;99.90;6.30;96768.00;;;;5053050;28;20196;-85
2023/02/04 00:08:07;;;;;;;0.30;0.30;;;5.00;99.90;6.20;96755.00;;;;5052051;28;20232;-84
2023/02/04 00:10:56;;;;;;;0.20;0.20;;;4.90;99.90;6.20;96757.00;;;;5053955;28;20219;-85
2023/02/04 00:13:44;;;;;;;0.93;0.43;;;4.80;99.90;6.10;96755.00;;;;5057492;28;20204;-84
2023/02/04 00:16:35;;;;;;;0.37;0.37;;;4.80;99.90;6.00;96756.00;;;;5053995;28;20228;-84
2023/02/04 00:19:23;;;;;;;1.27;0.70;;;4.70;99.90;5.90;96749.00;;;;5052301;28;20196;-83
2023/02/04 00:22:12;;;;;;;0.57;0.50;;;4.70;99.90;6.00;96735.00;;;;5041870;28;20212;-85
2023/02/04 00:25:01;;;;;;;0.60;0.47;;;4.60;99.90;5.90;96732.00;;;;5053879;28;20243;-85
2023/02/04 00:27:50;;;;;;;0.40;0.40;;;4.60;99.90;5.80;96743.00;;;;5052179;28;20274;-84
2023/02/04 00:30:38;;;;;;;0.38;0.38;;;4.60;99.90;5.20;96739.00;;;;5054596;28;20463;-83
2023/02/04 00:33:28;;;;;;;0.40;0.40;;;4.50;99.90;5.80;96750.00;;;;5054834;28;20212;-84
2023/02/04 00:36:17;;;;;;;0.50;0.50;;;4.40;99.90;6.20;96760.00;;;;5050482;28;20205;-85
2023/02/04 00:39:06;;;;;;;1.03;0.40;;;4.60;99.90;6.50;96758.00;;;;5052776;28;20313;-85
2023/02/04 00:41:55;;;;;;;0.40;0.40;;;4.70;99.90;6.70;96755.00;;;;5044828;28;20714;-84
2023/02/04 00:44:43;;;;;;;0.30;0.30;;;4.90;99.90;6.60;96741.00;;;;5054806;28;20220;-85
2023/02/04 00:47:32;;;;;;;0.37;0.37;;;5.00;99.90;6.70;96764.00;;;;5052429;28;20668;-86
2023/02/04 00:50:22;;;;;;;0.33;0.33;;;5.10;99.90;6.60;96792.00;;;;5050549;28;20669;-85
2023/02/04 00:53:11;;;;;;;0.50;0.50;;;5.50;99.90;6.50;96767.00;;;;5055051;28;20228;-85
2023/02/04 00:56:00;;;;;;;0.37;0.37;;;5.10;99.90;6.40;96783.00;;;;5055262;28;20212;-85
2023/02/04 00:58:48;;;;;;;0.30;0.30;;;5.10;99.90;6.50;96792.00;;;;5052261;28;20274;-84
2023/02/04 01:01:37;;;;;;;0.30;0.30;;;5.60;99.90;6.20;96777.00;;;;5054332;28;20290;-84
2023/02/04 01:04:26;;;;;;;1.73;0.40;;;5.00;99.90;6.40;96759.00;;;;5052894;28;20200;-84
2023/02/04 01:07:17;;;;;;;0.30;0.30;;;5.10;99.90;6.50;96771.00;;;;5053937;28;20217;-84
2023/02/04 01:10:06;;;;;;;0.30;0.30;;;5.10;99.90;5.90;96759.00;;;;5053631;28;20208;-83
2023/02/04 01:12:55;;;;;;;0.30;0.30;;;5.10;99.90;6.40;96773.00;;;;5050678;28;20208;-86
2023/02/04 01:15:44;;;;;;;0.40;0.40;;;5.10;99.90;6.50;96777.00;;;;5052913;28;20208;-85
2023/02/04 01:18:32;;;;;;;0.33;0.30;;;5.10;99.90;6.60;96791.00;;;;5050511;28;20369;-85
2023/02/04 01:21:21;;;;;;;0.30;0.30;;;5.10;99.90;6.10;96798.00;;;;5051235;28;20204;-83
2023/02/04 01:24:11;;;;;;;0.30;0.30;;;5.20;99.90;6.00;96786.00;;;;5053924;28;20208;-85
2023/02/04 01:27:01;;;;;;;0.30;0.30;;;5.00;99.90;6.40;96783.00;;;;5064789;28;20212;-85
2023/02/04 01:29:49;;;;;;;2.90;0.47;;;5.20;99.90;6.40;96794.00;;;;5055499;28;20208;-85
2023/02/04 01:32:38;;;;;;;0.20;0.20;;;5.00;99.90;6.30;96787.00;;;;5051955;28;20223;-84
2023/02/04 01:35:27;;;;;;;0.70;0.33;;;5.40;99.90;6.30;96785.00;;;;5056608;28;20263;-85
2023/02/04 01:38:16;;;;;;;0.23;0.23;;;4.90;99.90;6.30;96801.00;;;;5052720;28;20225;-86
2023/02/04 01:41:06;;;;;;;0.40;0.40;;;4.90;99.90;6.30;96788.00;;;;5051878;28;20672;-86
2023/02/04 01:43:55;;;;;;;0.37;0.30;;;4.90;99.90;6.30;96800.00;;;;5051706;28;20212;-85
2023/02/04 01:46:44;;;;;;;0.27;0.27;;;4.90;99.90;6.20;96802.00;;;;5053262;28;20224;-85
2023/02/04 01:49:33;;;;;;;0.50;0.50;;;4.80;99.90;6.20;96786.00;;;;5053263;28;20295;-85
2023/02/04 01:52:22;;;;;;;0.30;0.30;;;4.80;99.90;6.00;96790.00;;;;5056963;28;20208;-85
2023/02/04 01:55:15;;;;;;;0.30;0.30;;;4.70;99.90;5.90;96794.00;;;;5055488;28;20234;-84
2023/02/04 01:58:05;;;;;;;0.30;0.30;;;4.70;99.90;6.00;96803.00;;;;5055483;28;20645;-85
2023/02/04 02:00:53;;;;;;;0.73;0.40;;;4.60;99.90;6.00;96820.00;;;;5056545;28;20714;-85
2023/02/04 02:03:42;;;;;;;0.43;0.43;;;4.60;99.90;5.80;96806.00;;;;5056012;28;20220;-84
2023/02/04 02:06:32;;;;;;;0.30;0.30;;;4.60;99.90;5.90;96805.00;;;;5057011;28;20229;-84
2023/02/04 02:09:20;;;;;;;0.30;0.30;;;4.70;99.90;5.90;96814.00;;;;5054878;28;20217;-85
2023/02/04 02:12:09;;;;;;;0.40;0.40;;;4.50;99.90;5.80;96811.00;;;;5057717;28;20192;-84
2023/02/04 02:15:00;;;;;;;0.50;0.40;;;4.50;99.90;5.80;96819.00;;;;5055907;28;21001;-85
2023/02/04 02:17:49;;;;;;;0.30;0.30;;;4.50;99.90;5.90;96817.00;;;;5054072;28;20630;-85
2023/02/04 02:20:38;;;;;;;0.50;0.50;;;4.50;99.90;5.80;96819.00;;;;5056941;28;20205;-85
2023/02/04 02:23:46;;;;;;;0.37;0.37;;;4.40;99.90;5.70;96809.00;;;;5056735;28;20571;-85
2023/02/04 02:26:35;;;;;;;0.40;0.40;;;4.50;99.90;5.70;96814.00;;;;5064495;28;20220;-85
2023/02/04 02:29:24;;;;;;;0.30;0.30;;;4.40;99.90;5.80;96806.00;;;;5058717;28;20570;-84
2023/02/04 02:32:15;;;;;;;0.20;0.20;;;4.40;99.90;5.70;96814.00;;;;5056007;28;20672;-85
2023/02/04 02:35:05;;;;;;;0.50;0.50;;;4.40;99.90;5.60;96802.00;;;;5060399;28;20200;-84
2023/02/04 02:37:54;;;;;;;0.30;0.30;;;4.40;99.90;5.60;96791.00;;;;5052535;28;20677;-84
2023/02/04 02:40:44;;;;;;;0.50;0.47;;;4.30;99.90;5.60;96808.00;;;;5056507;28;20208;-85
2023/02/04 02:43:33;;;;;;;0.30;0.30;;;4.20;99.90;5.60;96809.00;;;;5056717;28;20200;-84
2023/02/04 02:46:22;;;;;;;0.47;0.40;;;4.40;99.90;5.60;96820.00;;;;5055388;28;20725;-85
2023/02/04 02:49:15;;;;;;;0.30;0.30;;;4.20;99.90;5.60;96808.00;;;;5055023;28;20205;-85
2023/02/04 02:52:04;;;;;;;0.40;0.40;;;4.30;99.90;5.60;96805.00;;;;5056328;28;20189;-84
2023/02/04 02:54:53;;;;;;;0.60;0.60;;;4.30;99.90;5.50;96803.00;;;;5055769;28;20258;-85
2023/02/04 02:57:44;;;;;;;0.40;0.30;;;4.20;99.90;5.50;96809.00;;;;5055153;28;20406;-85
2023/02/04 03:00:33;;;;;;;0.40;0.40;;;4.20;99.90;5.50;96798.00;;;;5054184;28;20679;-84
2023/02/04 03:03:26;;;;;;;0.30;0.30;;;4.20;99.90;5.60;96805.00;;;;5054917;28;20213;-84
2023/02/04 03:06:19;;;;;;;0.37;0.30;;;3.90;99.90;5.60;96814.00;;;;5054568;28;20687;-84
2023/02/04 03:09:08;;;;;;;0.43;0.43;;;4.20;99.90;5.60;96800.00;;;;5053568;28;20211;-85
2023/02/04 03:11:56;;;;;;;0.77;0.60;;;4.20;99.90;5.60;96809.00;;;;5057850;28;20586;-85
2023/02/04 03:14:47;;;;;;;0.30;0.30;;;4.20;99.90;5.60;96817.00;;;;5056396;28;20197;-85
2023/02/04 03:17:36;;;;;;;0.30;0.30;;;5.10;99.90;5.60;96807.00;;;;5057155;28;20224;-85
2023/02/04 03:20:27;;;;;;;0.50;0.50;;;4.80;99.90;5.60;96815.00;;;;5055628;28;20286;-84
2023/02/04 03:23:16;;;;;;;0.40;0.40;;;4.20;99.90;5.60;96817.00;;;;5054354;28;20215;-85
2023/02/04 03:26:06;;;;;;;0.30;0.30;;;4.20;99.90;5.60;96817.00;;;;5063951;28;20208;-85
2023/02/04 03:28:55;;;;;;;0.30;0.30;;;4.90;99.90;5.60;96816.00;;;;5054863;28;20201;-85
2023/02/04 03:31:45;;;;;;;0.57;0.57;;;4.20;99.90;5.60;96824.00;;;;5055004;28;20223;-86
2023/02/04 03:34:34;;;;;;;0.30;0.30;;;4.20;99.90;5.60;96821.00;;;;5059188;28;20572;-85
2023/02/04 03:37:22;;;;;;;0.40;0.40;;;4.20;99.90;5.60;96819.00;;;;5057237;28;20288;-85
2023/02/04 03:40:12;;;;;;;0.30;0.30;;;4.20;99.90;5.60;96810.00;;;;5054295;28;20702;-85
2023/02/04 03:43:01;;;;;;;0.40;0.40;;;4.10;99.90;5.60;96814.00;;;;5055413;28;20192;-85
2023/02/04 03:45:50;;;;;;;0.30;0.30;;;4.20;99.90;5.50;96811.00;;;;5050842;28;20209;-85
2023/02/04 03:48:40;;;;;;;0.67;0.60;;;4.20;99.90;5.60;96801.00;;;;5053929;28;20202;-85
2023/02/04 03:51:28;;;;;;;0.30;0.30;;;4.20;99.90;5.60;96815.00;;;;5054596;28;20565;-85
2023/02/04 03:54:17;;;;;;;0.30;0.30;;;4.20;99.90;5.60;96818.00;;;;5055084;28;20431;-85
2023/02/04 03:57:06;;;;;;;0.30;0.30;;;4.20;99.90;5.60;96822.00;;;;5054618;28;20282;-85
2023/02/04 03:59:55;;;;;;;1.23;0.53;;;4.20;99.90;5.60;96828.00;;;;5054391;28;20224;-85
2023/02/04 04:02:43;;;;;;;2.90;1.50;;;4.90;99.90;5.60;96810.00;;;;5054292;28;20299;-85
2023/02/04 04:05:33;;;;;;;4.77;1.90;;;4.20;99.90;5.50;96822.00;;;;5055165;28;20197;-86
2023/02/04 04:08:22;;;;;;;0.70;0.40;;;4.20;99.90;5.50;96817.00;;;;5047205;28;20247;-84
2023/02/04 04:11:11;;;;;;;0.40;0.40;;;4.20;99.90;5.50;96812.00;;;;5055091;28;20201;-84
2023/02/04 04:14:00;;;;;;;0.50;0.30;;;4.20;99.90;5.50;96817.00;;;;5054527;28;20215;-84
2023/02/04 04:16:49;;;;;;;0.97;0.43;;;4.60;99.90;5.50;96814.00;;;;5055304;28;20726;-85
2023/02/04 04:19:38;;;;;;;0.40;0.40;;;4.10;99.90;5.50;96828.00;;;;5053088;28;20258;-85
2023/02/04 04:22:28;;;;;;;0.50;0.50;;;4.60;99.90;5.50;96818.00;;;;5043273;28;20280;-85
2023/02/04 04:25:17;;;;;;;0.30;0.30;;;4.10;99.90;5.60;96832.00;;;;5055009;28;20224;-85
2023/02/04 04:28:06;;;;;;;0.30;0.30;;;4.70;99.90;5.60;96847.00;;;;5053411;28;20702;-85
2023/02/04 04:30:54;;;;;;;0.40;0.40;;;4.10;99.90;5.60;96837.00;;;;5053919;28;20599;-84
2023/02/04 04:33:43;;;;;;;0.47;0.47;;;4.20;99.90;5.50;96848.00;;;;5054137;28;20196;-85
2023/02/04 04:36:32;;;;;;;1.17;0.40;;;4.20;99.90;5.60;96861.00;;;;5052022;28;20268;-85
2023/02/04 04:39:25;;;;;;;1.57;0.30;;;4.20;99.90;5.60;96853.00;;;;5052955;28;20602;-85
2023/02/04 04:42:13;;;;;;;0.37;0.37;;;4.20;99.90;5.60;96857.00;;;;5054629;28;20204;-84
2023/02/04 04:45:03;;;;;;;0.30;0.30;;;4.20;99.90;5.60;96868.00;;;;5053324;28;20533;-85
2023/02/04 04:47:51;;;;;;;1.43;0.30;;;4.20;99.90;5.70;96848.00;;;;5053514;28;20225;-85
2023/02/04 04:50:40;;;;;;;2.27;0.50;;;4.20;99.90;5.70;96857.00;;;;5053203;28;20633;-86
2023/02/04 04:53:29;;;;;;;0.43;0.43;;;4.20;99.90;5.60;96857.00;;;;5052350;28;20246;-85
2023/02/04 04:56:19;;;;;;;0.27;0.27;;;4.10;99.90;5.60;96881.00;;;;5045346;28;20205;-85
2023/02/04 04:59:08;;;;;;;1.80;0.40;;;4.20;99.90;5.60;96889.00;;;;5042991;28;20212;-86
2023/02/04 05:01:57;;;;;;;0.30;0.30;;;4.20;99.90;5.40;96881.00;;;;5057287;28;20211;-84
2023/02/04 05:04:46;;;;;;;0.40;0.40;;;4.20;99.90;5.60;96874.00;;;;5051330;28;20208;-85
2023/02/04 05:07:34;;;;;;;0.70;0.53;;;5.00;99.90;5.60;96890.00;;;;5051880;28;20216;-84
2023/02/04 05:10:23;;;;;;;0.30;0.30;;;4.80;99.90;5.60;96890.00;;;;5052485;28;20212;-84
2023/02/04 05:13:14;;;;;;;0.20;0.20;;;4.60;99.90;5.50;96915.00;;;;5053333;28;20254;-86
2023/02/04 05:16:03;;;;;;;0.40;0.40;;;4.10;99.90;5.60;96906.00;;;;5052653;28;20212;-85
2023/02/04 05:18:52;;;;;;;0.60;0.60;;;4.10;99.90;5.50;96919.00;;;;5051421;28;20698;-84
2023/02/04 05:21:40;;;;;;;0.30;0.30;;;5.10;99.90;5.50;96923.00;;;;5053157;28;20232;-85
2023/02/04 05:24:29;;;;;;;0.47;0.47;;;5.00;99.90;5.50;96928.00;;;;5056316;28;20200;-85
2023/02/04 05:27:18;;;;;;;0.30;0.30;;;4.10;99.90;5.50;96930.00;;;;5043699;28;20243;-84
2023/02/04 05:30:11;;;;;;;0.20;0.20;;;4.10;99.90;5.50;96934.00;;;;5055563;28;20192;-84
2023/02/04 05:33:00;;;;;;;1.90;0.30;;;4.10;99.90;5.40;96948.00;;;;5056039;28;20687;-84
2023/02/04 05:35:49;;;;;;;0.30;0.30;;;4.70;99.90;5.50;96953.00;;;;5061736;28;20231;-85
2023/02/04 05:38:37;;;;;;;0.30;0.30;;;4.00;99.90;5.30;96948.00;;;;5054881;28;20209;-84
2023/02/04 05:41:26;;;;;;;0.20;0.20;;;4.00;99.90;5.30;96960.00;;;;5058117;28;20220;-84
2023/02/04 05:44:15;;;;;;;0.30;0.30;;;4.00;99.90;5.40;96932.00;;;;5056098;28;20197;-84
2023/02/04 05:47:05;;;;;;;0.30;0.30;;;4.00;99.90;5.20;96938.00;;;;5057111;28;20251;-84
2023/02/04 05:49:53;;;;;;;0.30;0.30;;;3.90;99.90;5.20;96944.00;;;;5044173;28;20208;-84
2023/02/04 05:52:42;;;;;;;0.30;0.30;;;4.80;99.90;5.10;96945.00;;;;5057676;28;20873;-85
2023/02/04 05:55:31;;;;;;;0.60;0.40;;;4.30;99.90;4.90;96959.00;;;;5056082;28;20216;-84
2023/02/04 05:58:20;;;;;;;0.37;0.30;;;3.80;99.90;5.10;96940.00;;;;5055611;28;20216;-85
2023/02/04 06:01:08;;;;;;;0.20;0.20;;;3.80;99.90;5.10;96935.00;;;;5058602;28;20215;-85
2023/02/04 06:03:58;;;;;;;1.13;0.33;;;3.70;99.90;4.80;96916.00;;;;5061293;28;20604;-85
2023/02/04 06:06:47;;;;;;;2.97;0.40;;;3.70;99.90;4.90;96946.00;;;;5063227;28;20224;-85
2023/02/04 06:09:36;;;;;;;1.53;0.40;;;4.50;99.90;5.00;96949.00;;;;5047781;28;20193;-84
2023/02/04 06:12:25;;;;;;;0.30;0.30;;;4.20;99.90;5.10;96924.00;;;;5056430;28;20450;-85
2023/02/04 06:15:14;;;;;;;0.50;0.50;;;3.70;99.90;4.70;96956.00;;;;5057181;28;20208;-85
2023/02/04 06:18:02;;;;;;;0.40;0.40;;;3.70;99.90;5.00;96954.00;;;;5055115;28;20225;-85
2023/02/04 06:20:52;;;;;;;0.30;0.30;;;3.70;99.90;4.90;96973.00;;;;5055620;28;20228;-85
2023/02/04 06:23:41;;;;;;;0.30;0.30;;;3.70;99.90;4.80;96974.00;;;;5064771;28;20258;-85
2023/02/04 06:26:30;;;;;;;0.20;0.20;;;3.80;99.90;5.00;96978.00;;;;5057788;28;20216;-85
2023/02/04 06:29:18;;;;;;;0.30;0.30;;;3.60;99.90;5.00;96985.00;;;;5056487;28;20287;-85
2023/02/04 06:32:07;;;;;;;0.30;0.30;;;3.70;99.90;5.10;97006.00;;;;5058574;28;20439;-84
2023/02/04 06:34:56;;;;;;;2.00;0.40;;;3.70;99.90;5.20;97003.00;;;;5058111;28;20208;-85
2023/02/04 06:37:46;;;;;;;0.60;0.40;;;4.70;99.90;5.20;97013.00;;;;5054565;28;20440;-85
2023/02/04 06:40:37;;;;;;;1.20;0.90;;;4.00;99.90;5.10;97030.00;;;;5055122;28;20459;-85
2023/02/04 06:43:26;;;;;;;0.40;0.40;;;3.70;99.90;5.20;97035.00;;;;5051542;28;20730;-85
2023/02/04 06:46:15;;;;;;;0.70;0.70;;;3.70;99.90;4.80;97034.00;;;;5062034;28;20435;-84
2023/02/04 06:49:04;;;;;;;0.50;0.40;;;3.70;99.90;4.80;97036.00;;;;5050897;28;20190;-86
2023/02/04 06:51:54;;;;;;;0.50;0.50;;;5.10;99.90;5.00;97053.00;;;;5054466;28;20290;-85
2023/02/04 06:54:44;;;;;;;0.33;0.33;;;3.80;99.90;5.10;97064.00;;;;5047103;28;20204;-85
2023/02/04 06:57:32;;;;;;;0.37;0.37;;;3.70;99.90;5.10;97090.00;;;;5051630;28;20212;-84
2023/02/04 07:00:21;;;;;;;0.70;0.60;;;2.30;99.90;5.10;97089.00;;;;5055421;28;20315;-85
2023/02/04 07:03:10;;;;;;;0.40;0.37;;;3.70;99.90;5.00;97109.00;;;;5061266;28;20258;-85
2023/02/04 07:05:59;;;;;;;6.03;3.17;;;3.70;99.90;5.00;97119.00;;;;5057830;28;20211;-86
2023/02/04 07:08:48;;;;;;;0.70;0.60;;;3.70;99.90;5.00;97134.00;;;;5053104;28;20212;-85
2023/02/04 07:11:38;;;;;;;1.87;0.77;;;4.90;99.90;4.90;97141.00;;;;5046509;28;20203;-84
2023/02/04 07:14:27;;;;;;;0.40;0.40;;;4.10;99.90;4.60;97151.00;;;;5051869;28;20209;-85
2023/02/04 07:17:15;;;;;;;0.57;0.40;;;3.50;99.90;4.50;97163.00;;;;5049005;28;20216;-84
2023/02/04 07:20:05;;;;;;;2.13;1.47;;;3.50;99.90;4.10;97165.00;;;;5046635;28;20209;-86
2023/02/04 07:22:53;;;;;;;1.60;1.30;;;3.40;99.90;3.90;97179.00;;;;5049095;28;20228;-85
2023/02/04 07:25:43;;;;;;;0.50;0.50;;;3.20;99.90;4.10;97192.00;;;;5053046;28;20209;-85
2023/02/04 07:28:35;;;;;;;0.30;0.30;;;3.20;99.90;3.90;97187.00;;;;5047184;28;20443;-85
2023/02/04 07:31:24;;;;;;;0.30;0.30;;;3.10;99.90;4.10;97189.00;;;;5048285;28;20443;-85
2023/02/04 07:34:13;;;;;;;0.60;0.60;;;3.00;99.90;3.70;97175.00;;;;5051526;28;20211;-83
2023/02/04 07:37:02;;;;;;;0.40;0.40;;;3.00;99.90;3.50;97172.00;;;;5052761;28;20443;-84
2023/02/04 07:39:51;;;;;;;0.40;0.40;;;3.00;99.90;3.80;97167.00;;;;5050840;28;20431;-86
2023/02/04 07:42:40;;;;;;;1.27;0.50;;;3.00;99.90;4.20;97187.00;;;;5048206;28;20866;-83
2023/02/04 07:45:30;;;;;;;0.30;0.30;;;3.20;99.90;4.20;97203.00;;;;5054137;28;20939;-83
2023/02/04 07:48:18;;;;;;;0.40;0.40;;;3.30;99.90;4.30;97208.00;;;;5051021;28;20467;-84
2023/02/04 07:51:07;;;;;;;0.67;0.30;;;4.60;99.90;4.50;97203.00;;;;5055833;28;20431;-84
2023/02/04 07:53:56;;;;;;;0.30;0.30;;;3.70;99.90;4.20;97198.00;;;;5062390;28;20427;-82
2023/02/04 07:56:45;;;;;;;0.30;0.30;;;3.80;99.90;4.40;97205.00;;;;5055352;28;20455;-81
2023/02/04 07:59:34;;;;;;;0.37;0.37;;;3.90;99.90;4.80;97220.00;;;;5050780;28;20802;-84
2023/02/04 08:02:24;;;;;;;0.40;0.40;;;4.00;99.90;5.50;97247.00;;;;5061754;28;20327;-86
2023/02/04 08:05:13;;;;;;;0.93;0.67;;;4.20;99.90;5.00;97227.00;;;;5062931;28;20495;-83
2023/02/04 08:08:02;;;;;;;0.50;0.40;;;4.30;99.90;5.60;97234.00;;;;5058293;28;20654;-84
2023/02/04 08:10:51;;;;;;;0.47;0.47;;;4.40;99.90;5.60;97243.00;;;;5062324;28;20220;-86
2023/02/04 08:13:39;;;;;;;0.30;0.30;;;4.50;99.90;5.80;97287.00;;;;5058829;28;20434;-86
2023/02/04 08:16:28;;;;;;;0.40;0.40;;;4.60;99.90;6.10;97267.00;;;;5056096;28;20963;-86
2023/02/04 08:19:20;;;;;;;0.57;0.40;;;4.70;99.90;6.20;97306.00;;;;5055367;28;20192;-84
2023/02/04 08:22:10;;;;;;;0.30;0.30;;;4.90;99.90;5.60;97298.00;;;;5059751;28;20240;-85
2023/02/04 08:24:59;;;;;;;0.30;0.30;;;6.90;99.90;5.90;97308.00;;;;5058450;28;20204;-84
2023/02/04 08:27:47;;;;;;;0.33;0.33;;;5.70;99.90;6.30;97324.00;;;;5054467;28;20225;-85
2023/02/04 08:30:36;;;;;;;0.30;0.30;;;5.10;99.90;5.60;97339.00;;;;5057022;28;20303;-84
2023/02/04 08:33:25;;;;;;;0.30;0.30;;;5.00;99.90;5.50;97308.00;;;;5061615;28;20228;-83
2023/02/04 08:36:15;;;;;;;1.43;0.53;;;5.00;99.90;5.90;97341.00;;;;5060278;28;20236;-85
2023/02/04 08:39:04;;;;;;;0.30;0.30;;;5.00;99.90;5.90;97347.00;;;;5046808;28;20228;-85
2023/02/04 08:41:53;;;;;;;0.40;0.40;;;5.00;99.90;5.80;97342.00;;;;5050194;28;20227;-84
2023/02/04 08:44:42;;;;;;;0.30;0.30;;;5.00;99.90;6.30;97370.00;;;;5053651;28;20209;-86
2023/02/04 08:47:31;;;;;;;0.30;0.30;;;5.10;99.90;6.60;97359.00;;;;5054376;28;20241;-85
2023/02/04 08:50:20;;;;;;;2.10;0.40;;;5.10;99.90;5.50;97360.00;;;;5055799;28;20284;-85
2023/02/04 08:53:10;;;;;;;0.50;0.50;;;5.50;99.90;6.50;97372.00;;;;5055296;28;20261;-85
2023/02/04 08:55:59;;;;;;;0.30;0.30;;;5.10;99.90;5.80;97348.00;;;;5049058;28;20205;-84
2023/02/04 08:58:48;;;;;;;0.30;0.30;;;5.10;99.90;6.50;97370.00;;;;5044784;28;20208;-85
2023/02/04 09:01:37;;;;;;;0.30;0.30;;;5.20;99.90;6.60;97381.00;;;;5052589;28;20359;-85
2023/02/04 09:04:27;;;;;;;1.90;0.50;;;5.20;99.90;6.70;97382.00;;;;5054285;28;20718;-84
2023/02/04 09:07:16;;;;;;;0.30;0.30;;;5.30;99.90;5.80;97396.00;;;;5050453;28;20235;-86
2023/02/04 09:10:07;;;;;;;1.23;0.43;;;5.30;99.90;6.30;97366.00;;;;5047140;28;20212;-85
2023/02/04 09:12:56;;;;;;;0.30;0.30;;;5.30;99.90;6.30;97395.00;;;;5055948;28;20204;-85
2023/02/04 09:15:47;;;;;;;1.03;0.53;;;5.30;99.90;6.50;97399.00;;;;5054632;28;20231;-85
2023/02/04 09:18:36;;;;;;;0.40;0.40;;;5.50;99.90;6.30;97398.00;;;;5048973;28;20224;-85
2023/02/04 09:21:25;;;;;;;0.50;0.50;;;5.40;99.90;6.90;97407.00;;;;5053899;28;20251;-84
2023/02/04 09:24:14;;;;;;;0.50;0.50;;;5.50;99.90;6.00;97392.00;;;;5054798;28;20197;-85
2023/02/04 09:27:04;;;;;;;0.67;0.37;;;5.50;99.90;6.60;97406.00;;;;5054563;28;20698;-85
2023/02/04 09:29:53;;;;;;;1.90;0.30;;;5.50;99.90;6.40;97394.00;;;;5057646;28;20211;-84
2023/02/04 09:32:41;;;;;;;0.30;0.30;;;5.50;99.50;6.40;97427.00;;;;5057819;28;20231;-86
2023/02/04 09:35:30;;;;;;;0.33;0.30;;;5.60;99.90;6.60;97440.00;;;;5066835;28;20203;-84
2023/02/04 09:38:20;;;;;;;0.40;0.40;;;5.60;99.60;6.40;97437.00;;;;5052915;28;20220;-84
2023/02/04 09:41:12;;;;;;;0.30;0.30;;;5.60;98.40;6.50;97428.00;;;;5051250;28;20640;-86
2023/02/04 09:44:09;;;;;;;0.30;0.30;;;5.60;98.60;6.70;97435.00;;;;5052775;28;20597;-85
2023/02/04 09:47:01;;;;;;;1.07;0.67;;;5.70;98.70;6.90;97438.00;;;;5050153;28;20315;-84
2023/02/04 09:49:49;;;;;;;0.40;0.40;;;5.70;98.90;6.90;97441.00;;;;5048655;28;20193;-85
2023/02/04 09:52:38;;;;;;;0.30;0.30;;;5.80;97.90;7.10;97465.00;;;;5053341;28;20202;-84
2023/02/04 09:55:33;;;;;;;0.47;0.47;;;4.90;97.60;5.80;97457.00;;;;5053888;28;20246;-84
2023/02/04 09:58:25;;;;;;;0.83;0.50;;;5.80;96.90;6.90;97477.00;;;;5051120;28;20247;-84
2023/02/04 10:01:18;;;;;;;1.33;0.87;;;5.70;97.20;7.20;97469.00;;;;5057174;28;20227;-85
2023/02/04 10:04:13;;;;;;;0.30;0.30;;;5.90;97.10;6.70;97475.00;;;;5069901;28;20196;-85
2023/02/04 10:07:02;;;;;;;0.60;0.60;;;5.80;96.20;6.70;97509.00;;;;5050376;28;20228;-85
2023/02/04 10:09:53;;;;;;;0.30;0.30;;;5.90;96.60;6.90;97501.00;;;;5051377;28;20197;-85
2023/02/04 10:12:42;;;;;;;0.47;0.47;;;5.90;97.40;7.00;97503.00;;;;5066986;28;20200;-85
2023/02/04 10:15:30;;;;;;;0.30;0.30;;;5.80;97.00;7.60;97531.00;;;;5063788;28;20215;-85
2023/02/04 10:18:27;;;;;;;0.40;0.40;;;6.00;97.30;6.90;97533.00;;;;5057968;28;20232;-83
2023/02/04 10:21:19;;;;;;;0.80;0.60;;;5.90;98.00;6.60;97500.00;;;;5062054;28;20197;-84
2023/02/04 10:24:15;;;;;;;0.50;0.50;;;5.80;99.90;6.40;97514.00;;;;5068338;28;20207;-84
2023/02/04 10:27:11;;;;;;;0.40;0.40;;;5.80;99.90;6.60;97515.00;;;;5066187;28;20266;-85
2023/02/04 10:30:00;;;;;;;0.43;0.43;;;5.70;99.90;6.40;97523.00;;;;5041387;28;20197;-85
2023/02/04 10:32:49;;;;;;;0.40;0.40;;;5.00;99.90;6.40;97529.00;;;;5061033;28;20656;-84
2023/02/04 10:35:47;;;;;;;0.50;0.50;;;5.50;99.90;6.60;97535.00;;;;5059760;28;20205;-85
2023/02/04 10:38:36;;;;;;;0.67;0.60;;;5.50;99.90;6.30;97538.00;;;;5062869;28;20705;-84
2023/02/04 10:41:25;;;;;;;0.30;0.30;;;5.40;99.90;6.30;97524.00;;;;5071227;28;20211;-85
2023/02/04 10:44:16;;;;;;;0.30;0.30;;;5.40;99.90;5.90;97534.00;;;;5063954;28;20319;-85
2023/02/04 10:47:08;;;;;;;0.20;0.20;;;5.40;99.90;5.80;97541.00;;;;5062085;28;20228;-83
2023/02/04 10:50:01;;;;;;;0.30;0.30;;;5.20;99.90;5.70;97516.00;;;;5048677;28;20693;-86
2023/02/04 10:52:54;;;;;;;0.40;0.40;;;5.00;99.90;6.80;97531.00;;;;5044910;28;20223;-85
2023/02/04 10:55:43;;;;;;;0.87;0.40;;;5.10;99.90;7.20;97542.00;;;;5075049;28;20200;-85
2023/02/04 10:58:33;;;;;;;3.23;0.53;;;5.50;99.90;7.30;97558.00;;;;5062271;28;20203;-85
2023/02/04 11:01:22;;;;;;;1.53;0.40;;;5.80;99.90;7.00;97551.00;;;;5065490;28;20223;-85
2023/02/04 11:04:11;;;;;;;1.87;1.00;;;5.90;98.80;6.70;97559.00;;;;5057317;28;20223;-86
2023/02/04 11:07:00;;;;;;;0.30;0.30;;;5.80;97.10;6.50;97498.00;;;;5057699;28;20252;-85
2023/02/04 11:09:50;;;;;;;0.30;0.30;;;5.80;96.60;5.10;97536.00;;;;5058627;28;20204;-84
2023/02/04 11:12:42;;;;;;;0.30;0.30;;;5.50;95.00;4.90;97500.00;;;;5068807;28;20232;-83
2023/02/04 11:15:43;;;;;;;0.70;0.40;;;5.00;93.00;6.10;97559.00;;;;5057453;28;20193;-84
2023/02/04 11:18:32;;;;;;;0.33;0.33;;;5.20;94.00;6.80;97543.00;;;;5066621;28;20239;-85
2023/02/04 11:21:28;;;;;;;0.40;0.40;;;5.40;93.80;7.20;97546.00;;;;5066028;28;20193;-86
2023/02/04 11:24:25;;;;;;;0.50;0.40;;;5.80;94.00;8.10;97555.00;;;;5062262;28;20282;-85
2023/02/04 11:27:24;;;;;;;0.33;0.33;;;5.90;92.20;7.00;97526.00;;;;5068256;28;20239;-84
2023/02/04 11:30:22;;;;;;;0.30;0.30;;;6.30;88.70;7.90;97567.00;;;;5063876;28;20203;-85
2023/02/04 11:33:24;;;;;;;0.63;0.63;;;6.60;88.30;7.80;97564.00;;;;5056824;28;20212;-85
2023/02/04 11:36:15;;;;;;;0.27;0.27;;;7.10;83.10;7.70;97571.00;;;;5061453;28;20205;-85
2023/02/04 11:39:16;;;;;;;0.30;0.30;;;6.80;83.30;6.60;97475.00;;;;5057306;28;20205;-83
2023/02/04 11:42:06;;;;;;;0.57;0.30;;;6.80;79.30;6.80;97541.00;;;;5055224;28;20219;-84
2023/02/04 11:45:00;;;;;;;0.20;0.20;;;6.50;78.70;7.20;97550.00;;;;5056725;28;20429;-86
2023/02/04 11:47:51;;;;;;;0.60;0.50;;;6.50;79.40;7.10;97533.00;;;;5048150;28;20225;-86
2023/02/04 11:50:41;;;;;;;0.80;0.60;;;6.40;79.90;6.20;97547.00;;;;5050259;28;20200;-84
2023/02/04 11:53:32;;;;;;;0.63;0.53;;;6.30;75.90;6.30;97537.00;;;;5054870;28;20208;-85
2023/02/04 11:56:22;;;;;;;0.80;0.80;;;6.00;81.80;6.40;97537.00;;;;5052411;28;20201;-86
2023/02/04 11:59:13;;;;;;;0.60;0.60;;;5.80;76.90;8.00;97569.00;;;;5048101;28;20215;-85
2023/02/04 12:02:16;;;;;;;0.80;0.80;;;6.20;78.40;8.10;97607.00;;;;5055452;28;20207;-86
2023/02/04 12:05:15;;;;;;;0.50;0.50;;;6.70;76.30;6.70;97588.00;;;;5054713;28;20208;-85
2023/02/04 12:08:13;;;;;;;0.43;0.37;;;6.50;75.30;6.90;97606.00;;;;5055606;28;20216;-85
2023/02/04 12:11:08;;;;;;;0.70;0.40;;;6.40;74.40;6.90;97590.00;;;;5053659;28;20573;-86
2023/02/04 12:14:06;;;;;;;0.30;0.30;;;6.30;76.50;6.90;97597.00;;;;5048178;28;20197;-86
2023/02/04 12:16:55;;;;;;;1.90;0.87;;;6.00;74.80;7.30;97640.00;;;;5054965;28;20228;-86
2023/02/04 12:19:45;;;;;;;1.30;1.23;;;6.20;76.30;5.80;97581.00;;;;5055949;28;20262;-84
2023/02/04 12:22:34;;;;;;;0.60;0.60;;;5.90;74.80;5.70;97594.00;;;;5060657;28;20197;-85
2023/02/04 12:25:22;;;;;;;0.50;0.40;;;5.60;76.00;5.70;97589.00;;;;5059355;28;20220;-85
2023/02/04 12:28:11;;;;;;;0.40;0.40;;;5.50;77.00;5.40;97574.00;;;;5053851;28;20228;-85
2023/02/04 12:31:00;;;;;;;0.50;0.50;;;5.20;77.00;6.10;97604.00;;;;5053150;28;20294;-85
2023/02/04 12:33:49;;;;;;;0.40;0.40;;;5.10;78.20;6.70;97625.00;;;;5057182;28;20204;-85
2023/02/04 12:36:39;;;;;;;0.40;0.40;;;5.20;79.70;6.00;97611.00;;;;5056985;28;20236;-84
2023/02/04 12:39:28;;;;;;;0.50;0.50;;;5.30;76.40;6.60;97618.00;;;;5061756;28;20201;-85
2023/02/04 12:42:17;;;;;;;0.50;0.50;;;5.40;77.90;6.90;97627.00;;;;5051304;28;20192;-85
2023/02/04 12:45:08;;;;;;;0.60;0.60;;;5.40;78.60;7.10;97626.00;;;;5061096;28;20239;-85
2023/02/04 12:47:56;;;;;;;0.50;0.50;;;5.50;79.10;6.60;97616.00;;;;5058448;28;20224;-86
2023/02/04 12:50:45;;;;;;;0.50;0.50;;;5.50;78.60;6.70;97625.00;;;;5059812;28;20200;-86
2023/02/04 12:53:35;;;;;;;0.30;0.30;;;5.60;79.20;7.00;97624.00;;;;5056981;28;20208;-86